Time;durP1;ratioP1;P1;durP2;ratioP2;P2;SDS_P1;SDS_P2;PMS_P1;PMS_P2;Temp;Humidity;BMP_temperature;BMP_pressure;BME280_temperature;BME280_humidity;BME280_pressure;Samples;Min_cycle;Max_cycle;Signal;HPM_P1;HPM_P2
2022/10/21 00:01:26;;;;;;;;;;;13.70;99.90;;;;;;5071832;28;20371;-67
2022/10/21 00:03:54;;;;;;;;;;;13.60;99.90;;;;;;5071869;28;20335;-66
2022/10/21 00:06:21;;;;;;;;;;;13.60;99.90;;;;;;5071635;28;19970;-67
2022/10/21 00:08:50;;;;;;;;;;;13.60;99.90;;;;;;5071877;28;19967;-67
2022/10/21 00:11:18;;;;;;;;;;;13.50;99.90;;;;;;5071943;28;20017;-66
2022/10/21 00:13:46;;;;;;;;;;;13.50;99.90;;;;;;5072213;28;19972;-66
2022/10/21 00:16:15;;;;;;;;;;;13.50;99.90;;;;;;5071985;28;20462;-66
2022/10/21 00:18:43;;;;;;;;;;;13.50;99.90;;;;;;5071962;28;19972;-64
2022/10/21 00:21:12;;;;;;;;;;;13.40;99.90;;;;;;5071590;28;19970;-66
2022/10/21 00:23:39;;;;;;;;;;;13.40;99.90;;;;;;5072224;28;19968;-67
2022/10/21 00:26:09;;;;;;;;;;;13.40;99.90;;;;;;5072186;28;19976;-66
2022/10/21 00:28:37;;;;;;;;;;;13.40;99.90;;;;;;5072225;28;20359;-66
2022/10/21 00:31:06;;;;;;;;;;;13.40;99.90;;;;;;5071743;28;19978;-66
2022/10/21 00:33:34;;;;;;;;;;;13.50;99.90;;;;;;5072126;28;19968;-66
2022/10/21 00:36:02;;;;;;;;;;;13.40;99.90;;;;;;5072207;28;19967;-66
2022/10/21 00:38:30;;;;;;;;;;;13.40;99.90;;;;;;5071513;28;19968;-66
2022/10/21 00:40:59;;;;;;;;;;;13.40;99.90;;;;;;5071065;28;19975;-66
2022/10/21 00:43:28;;;;;;;;;;;13.50;99.90;;;;;;5071524;28;20004;-66
2022/10/21 00:45:59;;;;;;;;;;;13.50;99.90;;;;;;5071493;28;20006;-66
2022/10/21 00:48:31;;;;;;;;;;;13.60;99.90;;;;;;5071770;28;19979;-66
2022/10/21 00:51:00;;;;;;;;;;;13.60;99.90;;;;;;5071237;28;20114;-65
2022/10/21 00:53:28;;;;;;;;;;;13.70;99.90;;;;;;5071428;28;19990;-66
2022/10/21 00:55:58;;;;;;;;;;;13.70;99.90;;;;;;5071241;28;20351;-66
2022/10/21 00:58:30;;;;;;;;;;;13.70;99.90;;;;;;5071877;28;20011;-66
2022/10/21 01:00:59;;;;;;;;;;;13.80;99.90;;;;;;5070990;28;20054;-66
2022/10/21 01:03:28;;;;;;;;;;;13.90;99.90;;;;;;5074397;28;19974;-66
2022/10/21 01:05:57;;;;;;;;;;;13.90;99.90;;;;;;5075057;28;19978;-66
2022/10/21 01:08:25;;;;;;;;;;;13.90;99.90;;;;;;5074440;28;19976;-66
2022/10/21 01:10:53;;;;;;;;;;;13.90;99.90;;;;;;5074501;28;20534;-66
2022/10/21 01:13:24;;;;;;;;;;;13.90;99.90;;;;;;5074925;28;20050;-65
2022/10/21 01:15:56;;;;;;;;;;;13.90;99.90;;;;;;5074714;28;19970;-66
2022/10/21 01:18:27;;;;;;;;;;;14.00;99.90;;;;;;5074864;28;19975;-66
2022/10/21 01:21:12;;;;;;;;;;;14.00;99.90;;;;;;5074519;28;20008;-66
2022/10/21 01:23:53;;;;;;;;;;;14.00;99.90;;;;;;5074739;28;19999;-66
2022/10/21 01:26:30;;;;;;;;;;;14.00;99.90;;;;;;5074740;28;19973;-66
2022/10/21 01:29:09;;;;;;;;;;;14.00;99.90;;;;;;5074686;28;19974;-66
2022/10/21 01:31:39;;;;;;;;;;;14.00;99.90;;;;;;5074021;28;19967;-66
2022/10/21 01:34:09;;;;;;;;;;;14.00;99.90;;;;;;5074538;28;20354;-66
2022/10/21 01:36:41;;;;;;;;;;;14.10;99.90;;;;;;5074422;28;19966;-67
2022/10/21 01:39:13;;;;;;;;;;;14.10;99.90;;;;;;5074284;28;19973;-66
2022/10/21 01:41:42;;;;;;;;;;;14.20;99.90;;;;;;5074014;28;19966;-66
2022/10/21 01:44:15;;;;;;;;;;;14.20;99.90;;;;;;5074273;28;19978;-66
2022/10/21 01:46:47;;;;;;;;;;;14.10;99.90;;;;;;5074309;28;20066;-66
2022/10/21 01:49:17;;;;;;;;;;;14.10;99.90;;;;;;5074214;28;19976;-66
2022/10/21 01:51:46;;;;;;;;;;;14.00;99.90;;;;;;5073829;28;20026;-66
2022/10/21 01:54:15;;;;;;;;;;;14.10;99.90;;;;;;5074097;28;20313;-66
2022/10/21 01:56:44;;;;;;;;;;;14.10;99.90;;;;;;5073900;28;19972;-66
2022/10/21 01:59:13;;;;;;;;;;;14.00;99.90;;;;;;5073961;28;20070;-66
2022/10/21 02:01:41;;;;;;;;;;;14.00;99.90;;;;;;5073543;28;20363;-66
2022/10/21 02:04:12;;;;;;;;;;;14.00;99.90;;;;;;5073864;28;20024;-66
2022/10/21 02:06:40;;;;;;;;;;;14.10;99.90;;;;;;5073206;28;20069;-66
2022/10/21 02:09:08;;;;;;;;;;;14.00;99.90;;;;;;5073880;28;19968;-66
2022/10/21 02:11:37;;;;;;;;;;;14.10;99.90;;;;;;5073331;28;19968;-66
2022/10/21 02:14:07;;;;;;;;;;;14.00;99.90;;;;;;5073228;28;20436;-65
2022/10/21 02:16:37;;;;;;;;;;;14.00;99.90;;;;;;5073693;28;20033;-66
2022/10/21 02:19:06;;;;;;;;;;;14.10;99.90;;;;;;5073602;28;20019;-66
2022/10/21 02:21:36;;;;;;;;;;;14.10;99.90;;;;;;5073296;28;19972;-66
2022/10/21 02:24:06;;;;;;;;;;;14.10;99.90;;;;;;5073680;28;19971;-66
2022/10/21 02:26:34;;;;;;;;;;;14.20;99.90;;;;;;5073507;28;20017;-66
2022/10/21 02:29:02;;;;;;;;;;;14.10;99.90;;;;;;5073472;28;20014;-66
2022/10/21 02:31:39;;;;;;;;;;;14.20;99.90;;;;;;5072840;28;19967;-66
2022/10/21 02:34:13;;;;;;;;;;;14.20;99.90;;;;;;5073597;28;20427;-67
2022/10/21 02:36:47;;;;;;;;;;;14.20;99.90;;;;;;5073363;28;19972;-66
2022/10/21 02:39:18;;;;;;;;;;;14.20;99.90;;;;;;5073328;28;20007;-66
2022/10/21 02:41:47;;;;;;;;;;;14.20;99.90;;;;;;5072762;28;20061;-66
2022/10/21 02:44:15;;;;;;;;;;;14.20;99.90;;;;;;5073059;28;20629;-66
2022/10/21 02:46:45;;;;;;;;;;;14.20;99.90;;;;;;5073037;28;20061;-66
2022/10/21 02:49:13;;;;;;;;;;;14.20;99.90;;;;;;5073451;28;20057;-66
2022/10/21 02:51:41;;;;;;;;;;;14.20;99.90;;;;;;5072798;28;20021;-66
2022/10/21 02:54:10;;;;;;;;;;;14.20;99.90;;;;;;5072966;28;20021;-66
2022/10/21 02:56:38;;;;;;;;;;;14.20;99.90;;;;;;5072770;28;19972;-66
2022/10/21 02:59:06;;;;;;;;;;;14.20;99.90;;;;;;5072795;28;19975;-66
2022/10/21 03:01:33;;;;;;;;;;;14.30;99.90;;;;;;5072383;28;20448;-66
2022/10/21 03:04:01;;;;;;;;;;;14.30;99.90;;;;;;5072772;28;20452;-66
2022/10/21 03:06:29;;;;;;;;;;;14.30;99.90;;;;;;5072236;28;19970;-67
2022/10/21 03:08:56;;;;;;;;;;;14.40;99.90;;;;;;5072692;28;20445;-66
2022/10/21 03:11:26;;;;;;;;;;;14.40;99.90;;;;;;5072567;28;19994;-66
2022/10/21 03:13:53;;;;;;;;;;;14.40;99.90;;;;;;5072386;28;19972;-66
2022/10/21 03:16:21;;;;;;;;;;;14.40;99.90;;;;;;5072898;28;19990;-66
2022/10/21 03:18:49;;;;;;;;;;;14.30;99.90;;;;;;5072895;28;19972;-66
2022/10/21 03:21:17;;;;;;;;;;;14.30;99.90;;;;;;5072236;28;20532;-66
2022/10/21 03:23:44;;;;;;;;;;;14.30;99.90;;;;;;5072034;28;20496;-66
2022/10/21 03:26:12;;;;;;;;;;;14.30;99.90;;;;;;5071503;28;20105;-66
2022/10/21 03:28:41;;;;;;;;;;;14.30;99.90;;;;;;5072322;28;20059;-66
2022/10/21 03:31:09;;;;;;;;;;;14.30;99.90;;;;;;5072021;28;19966;-66
2022/10/21 03:33:37;;;;;;;;;;;14.20;99.90;;;;;;5071941;28;19970;-64
2022/10/21 03:36:05;;;;;;;;;;;14.30;99.90;;;;;;5072264;28;20076;-64
2022/10/21 03:38:32;;;;;;;;;;;14.30;99.90;;;;;;5072085;28;20058;-64
2022/10/21 03:41:00;;;;;;;;;;;14.30;99.90;;;;;;5071942;28;20005;-64
2022/10/21 03:43:28;;;;;;;;;;;14.30;99.90;;;;;;5072005;28;20430;-64
2022/10/21 03:45:57;;;;;;;;;;;14.30;99.90;;;;;;5071995;28;20007;-66
2022/10/21 03:48:25;;;;;;;;;;;14.30;99.90;;;;;;5071941;28;20472;-64
2022/10/21 03:50:52;;;;;;;;;;;14.30;99.90;;;;;;5072054;28;20066;-66
2022/10/21 03:53:20;;;;;;;;;;;14.30;99.90;;;;;;5071820;28;20051;-66
2022/10/21 03:56:08;;;;;;;;;;;14.30;99.90;;;;;;5071557;28;19982;-66
2022/10/21 03:58:35;;;;;;;;;;;14.30;99.90;;;;;;5071827;28;20053;-66
2022/10/21 04:01:04;;;;;;;;;;;14.30;99.90;;;;;;5071851;28;20011;-66
2022/10/21 04:03:32;;;;;;;;;;;14.40;99.90;;;;;;5071690;28;20355;-66
2022/10/21 04:06:00;;;;;;;;;;;14.40;99.90;;;;;;5071815;28;19999;-64
2022/10/21 04:08:27;;;;;;;;;;;14.40;99.90;;;;;;5071325;28;19972;-65
2022/10/21 04:10:56;;;;;;;;;;;14.40;99.90;;;;;;5071350;28;20068;-65
2022/10/21 04:13:24;;;;;;;;;;;14.50;99.90;;;;;;5071769;28;19993;-64
2022/10/21 04:15:56;;;;;;;;;;;14.40;99.90;;;;;;5071758;28;19999;-65
2022/10/21 04:18:26;;;;;;;;;;;14.50;99.90;;;;;;5072219;28;20065;-64
2022/10/21 04:20:54;;;;;;;;;;;14.50;99.90;;;;;;5071348;28;20463;-64
2022/10/21 04:23:21;;;;;;;;;;;14.40;99.90;;;;;;5071397;28;19967;-64
2022/10/21 04:25:49;;;;;;;;;;;14.50;99.90;;;;;;5071626;28;20439;-64
2022/10/21 04:28:17;;;;;;;;;;;14.50;99.90;;;;;;5071871;28;19974;-64
2022/10/21 04:30:45;;;;;;;;;;;14.50;99.90;;;;;;5071493;28;19974;-64
2022/10/21 04:33:12;;;;;;;;;;;14.50;99.90;;;;;;5071376;28;19968;-64
2022/10/21 04:35:41;;;;;;;;;;;14.50;99.90;;;;;;5071541;28;19972;-64
2022/10/21 04:38:09;;;;;;;;;;;14.40;99.90;;;;;;5074286;28;19967;-64
2022/10/21 04:40:37;;;;;;;;;;;14.40;99.90;;;;;;5075394;28;19976;-64
2022/10/21 04:43:04;;;;;;;;;;;14.40;99.90;;;;;;5075228;28;19968;-64
2022/10/21 04:45:32;;;;;;;;;;;14.50;99.90;;;;;;5075557;28;19984;-64
2022/10/21 04:48:00;;;;;;;;;;;14.50;99.90;;;;;;5075286;28;19976;-65
2022/10/21 04:50:28;;;;;;;;;;;14.50;99.90;;;;;;5075133;28;20440;-64
2022/10/21 04:52:57;;;;;;;;;;;14.50;99.90;;;;;;5075196;28;19994;-64
2022/10/21 04:55:24;;;;;;;;;;;14.50;99.90;;;;;;5075228;28;19978;-65
2022/10/21 04:57:52;;;;;;;;;;;14.60;99.90;;;;;;5075140;28;19974;-64
2022/10/21 05:00:20;;;;;;;;;;;14.60;99.90;;;;;;5074935;28;20070;-64
2022/10/21 05:02:47;;;;;;;;;;;14.60;99.90;;;;;;5074737;28;20018;-64
2022/10/21 05:05:15;;;;;;;;;;;14.60;99.90;;;;;;5074992;28;19973;-65
2022/10/21 05:07:43;;;;;;;;;;;14.60;99.90;;;;;;5110658;22;19964;-63
2022/10/21 05:10:12;;;;;;;;;;;14.60;99.90;;;;;;5102483;28;19981;-63
2022/10/21 05:12:40;;;;;;;;;;;14.60;99.90;;;;;;5115326;28;20399;-63
2022/10/21 05:15:08;;;;;;;;;;;14.60;99.90;;;;;;5115406;28;20347;-64
2022/10/21 05:17:36;;;;;;;;;;;14.60;99.90;;;;;;5115717;28;19971;-64
2022/10/21 05:20:05;;;;;;;;;;;14.60;99.90;;;;;;5115214;28;19968;-63
2022/10/21 05:22:33;;;;;;;;;;;14.60;99.90;;;;;;5115253;28;19967;-65
2022/10/21 05:25:01;;;;;;;;;;;14.60;99.90;;;;;;5115370;28;20366;-63
2022/10/21 05:27:30;;;;;;;;;;;14.70;99.90;;;;;;5115022;28;20351;-64
2022/10/21 05:29:58;;;;;;;;;;;14.70;99.90;;;;;;5115125;28;19967;-63
2022/10/21 05:32:25;;;;;;;;;;;14.70;99.90;;;;;;5115165;28;19968;-65
2022/10/21 05:34:53;;;;;;;;;;;14.70;99.90;;;;;;5115247;28;19967;-63
2022/10/21 05:37:21;;;;;;;;;;;14.70;99.90;;;;;;5115060;28;19971;-64
2022/10/21 05:39:48;;;;;;;;;;;14.70;99.90;;;;;;5114698;28;20073;-64
2022/10/21 05:42:16;;;;;;;;;;;14.60;99.90;;;;;;5115057;28;19972;-64
2022/10/21 05:44:45;;;;;;;;;;;14.60;99.90;;;;;;5115041;28;19966;-64
2022/10/21 05:47:13;;;;;;;;;;;14.70;99.90;;;;;;5115239;28;19971;-64
2022/10/21 05:49:40;;;;;;;;;;;14.70;99.90;;;;;;5113848;28;19966;-63
2022/10/21 05:52:08;;;;;;;;;;;14.70;99.90;;;;;;5115057;28;19967;-64
2022/10/21 05:54:36;;;;;;;;;;;14.60;99.90;;;;;;5114700;28;20088;-64
2022/10/21 05:57:04;;;;;;;;;;;14.70;99.90;;;;;;5114837;28;19974;-65
2022/10/21 05:59:31;;;;;;;;;;;14.70;99.90;;;;;;5114551;28;20426;-63
2022/10/21 06:02:00;;;;;;;;;;;14.70;99.90;;;;;;5114686;28;19974;-64
2022/10/21 06:04:28;;;;;;;;;;;14.70;99.90;;;;;;5114484;28;19975;-65
2022/10/21 06:06:56;;;;;;;;;;;14.80;99.90;;;;;;5113866;28;19967;-63
2022/10/21 06:09:29;;;;;;;;;;;14.80;99.90;;;;;;5114549;28;20342;-64
2022/10/21 06:11:57;;;;;;;;;;;14.80;99.90;;;;;;5114348;28;19978;-64
2022/10/21 06:14:25;;;;;;;;;;;14.80;99.90;;;;;;5114224;28;20355;-64
2022/10/21 06:16:53;;;;;;;;;;;14.70;99.90;;;;;;5114326;28;19970;-65
2022/10/21 06:19:22;;;;;;;;;;;14.70;99.90;;;;;;5114354;28;20058;-63
2022/10/21 06:21:50;;;;;;;;;;;14.70;99.90;;;;;;5114090;28;19972;-64
2022/10/21 06:24:17;;;;;;;;;;;14.70;99.90;;;;;;5114148;28;19971;-64
2022/10/21 06:26:45;;;;;;;;;;;14.70;99.90;;;;;;5114203;28;19967;-63
2022/10/21 06:29:14;;;;;;;;;;;14.80;99.90;;;;;;5114199;28;20384;-65
2022/10/21 06:31:42;;;;;;;;;;;14.70;99.90;;;;;;5114104;28;20316;-64
2022/10/21 06:34:10;;;;;;;;;;;14.70;99.90;;;;;;5114046;28;19967;-64
2022/10/21 06:36:39;;;;;;;;;;;14.80;99.90;;;;;;5114083;28;19990;-64
2022/10/21 06:39:07;;;;;;;;;;;14.70;99.90;;;;;;5114067;28;19971;-64
2022/10/21 06:41:34;;;;;;;;;;;14.70;99.90;;;;;;5113634;28;20066;-64
2022/10/21 06:44:02;;;;;;;;;;;14.60;99.90;;;;;;5113830;28;20336;-64
2022/10/21 06:46:30;;;;;;;;;;;14.60;99.90;;;;;;5113741;28;20066;-64
2022/10/21 06:48:57;;;;;;;;;;;14.70;99.90;;;;;;5113602;28;19973;-63
2022/10/21 06:51:25;;;;;;;;;;;14.60;99.90;;;;;;5113593;28;20057;-64
2022/10/21 06:53:55;;;;;;;;;;;14.70;99.90;;;;;;5113668;28;20428;-64
2022/10/21 06:56:23;;;;;;;;;;;14.70;99.90;;;;;;5113511;28;19970;-64
2022/10/21 06:58:51;;;;;;;;;;;14.70;99.90;;;;;;5113761;28;19975;-63
2022/10/21 07:01:20;;;;;;;;;;;14.60;99.90;;;;;;5113125;28;20066;-64
2022/10/21 07:04:08;;;;;;;;;;;14.60;99.90;;;;;;5113404;28;19978;-63
2022/10/21 07:06:36;;;;;;;;;;;14.70;99.90;;;;;;5112630;28;19993;-64
2022/10/21 07:09:06;;;;;;;;;;;14.70;99.90;;;;;;5113256;28;19967;-64
2022/10/21 07:11:34;;;;;;;;;;;14.70;99.90;;;;;;5113155;28;20021;-64
2022/10/21 07:14:02;;;;;;;;;;;14.70;99.90;;;;;;5113306;28;19966;-63
2022/10/21 07:16:30;;;;;;;;;;;14.70;99.90;;;;;;5113160;28;20014;-64
2022/10/21 07:18:58;;;;;;;;;;;14.70;99.90;;;;;;5112840;28;19987;-64
2022/10/21 07:21:27;;;;;;;;;;;14.70;99.90;;;;;;5112671;28;20018;-63
2022/10/21 07:23:56;;;;;;;;;;;14.70;99.90;;;;;;5113176;28;19967;-64
2022/10/21 07:26:28;;;;;;;;;;;14.80;99.90;;;;;;5113054;28;19975;-63
2022/10/21 07:28:57;;;;;;;;;;;14.70;99.90;;;;;;5112773;28;20435;-64
2022/10/21 07:31:25;;;;;;;;;;;14.80;99.90;;;;;;5112750;28;19971;-64
2022/10/21 07:33:53;;;;;;;;;;;14.70;99.90;;;;;;5112854;28;19981;-65
2022/10/21 07:36:22;;;;;;;;;;;14.70;99.90;;;;;;5112471;28;20360;-64
2022/10/21 07:38:50;;;;;;;;;;;14.70;99.90;;;;;;5112865;28;19967;-64
2022/10/21 07:41:19;;;;;;;;;;;14.50;99.90;;;;;;5112611;28;19977;-64
2022/10/21 07:43:48;;;;;;;;;;;14.50;99.90;;;;;;5112493;28;20062;-66
2022/10/21 07:46:17;;;;;;;;;;;14.50;99.90;;;;;;5112483;28;19968;-64
2022/10/21 07:48:45;;;;;;;;;;;14.50;99.90;;;;;;5112844;28;19977;-64
2022/10/21 07:51:14;;;;;;;;;;;14.50;99.90;;;;;;5112518;28;20414;-64
2022/10/21 07:53:42;;;;;;;;;;;14.50;99.90;;;;;;5112647;28;19967;-64
2022/10/21 07:56:11;;;;;;;;;;;14.50;99.90;;;;;;5112638;28;19967;-64
2022/10/21 07:58:39;;;;;;;;;;;14.50;99.90;;;;;;5112461;28;19979;-63
2022/10/21 08:01:08;;;;;;;;;;;14.50;99.90;;;;;;5112412;28;19966;-63
2022/10/21 08:03:36;;;;;;;;;;;14.50;99.90;;;;;;5112428;28;20401;-66
2022/10/21 08:06:05;;;;;;;;;;;14.50;99.90;;;;;;5112383;28;19966;-64
2022/10/21 08:08:33;;;;;;;;;;;14.60;99.90;;;;;;5111684;28;20082;-64
2022/10/21 08:11:01;;;;;;;;;;;14.60;99.90;;;;;;5112119;28;20062;-64
2022/10/21 08:13:30;;;;;;;;;;;14.60;99.90;;;;;;5111795;28;19979;-64
2022/10/21 08:15:58;;;;;;;;;;;14.60;99.90;;;;;;5112395;28;20137;-64
2022/10/21 08:18:27;;;;;;;;;;;14.70;99.90;;;;;;5112249;28;19967;-64
2022/10/21 08:20:55;;;;;;;;;;;14.60;99.90;;;;;;5111909;28;20436;-64
2022/10/21 08:23:23;;;;;;;;;;;14.60;99.90;;;;;;5112123;28;20321;-65
2022/10/21 08:25:52;;;;;;;;;;;14.60;99.90;;;;;;5112156;28;19971;-64
2022/10/21 08:28:21;;;;;;;;;;;14.60;99.90;;;;;;5112289;28;19971;-64
2022/10/21 08:30:48;;;;;;;;;;;14.70;99.90;;;;;;5112013;28;20458;-64
2022/10/21 08:33:16;;;;;;;;;;;14.70;99.90;;;;;;5112229;28;19967;-63
2022/10/21 08:35:45;;;;;;;;;;;14.70;99.90;;;;;;5112022;28;19971;-64
2022/10/21 08:38:13;;;;;;;;;;;14.80;99.90;;;;;;5112133;28;19970;-65
2022/10/21 08:40:41;;;;;;;;;;;14.80;99.90;;;;;;5112004;28;20013;-64
2022/10/21 08:43:10;;;;;;;;;;;14.90;99.90;;;;;;5112173;28;19977;-64
2022/10/21 08:45:42;;;;;;;;;;;14.90;99.90;;;;;;5111872;28;20454;-64
2022/10/21 08:48:13;;;;;;;;;;;14.90;99.90;;;;;;5112370;28;19967;-64
2022/10/21 08:50:42;;;;;;;;;;;15.00;99.90;;;;;;5112154;28;19971;-64
2022/10/21 08:53:13;;;;;;;;;;;15.00;99.90;;;;;;5112080;28;19967;-64
2022/10/21 08:55:43;;;;;;;;;;;15.10;99.90;;;;;;5111989;28;19973;-64
2022/10/21 08:58:13;;;;;;;;;;;15.10;99.90;;;;;;5112051;28;19971;-64
2022/10/21 09:00:45;;;;;;;;;;;15.10;99.90;;;;;;5111773;28;20471;-65
2022/10/21 09:03:18;;;;;;;;;;;15.00;99.90;;;;;;5111859;28;19967;-65
2022/10/21 09:05:55;;;;;;;;;;;15.00;99.90;;;;;;5111752;28;20478;-64
2022/10/21 09:08:30;;;;;;;;;;;14.90;99.90;;;;;;5111358;28;20447;-64
2022/10/21 09:11:00;;;;;;;;;;;14.90;99.90;;;;;;5111692;28;19967;-64
2022/10/21 09:13:38;;;;;;;;;;;14.90;99.90;;;;;;5112021;28;19971;-65
2022/10/21 09:16:08;;;;;;;;;;;14.80;99.90;;;;;;5111792;28;19971;-64
2022/10/21 09:18:42;;;;;;;;;;;14.80;99.90;;;;;;5111685;28;19967;-64
2022/10/21 09:21:14;;;;;;;;;;;14.70;99.90;;;;;;5111488;28;19967;-64
2022/10/21 09:23:50;;;;;;;;;;;14.70;99.90;;;;;;5111905;28;19999;-65
2022/10/21 09:26:27;;;;;;;;;;;14.80;99.90;;;;;;5115398;28;19967;-64
2022/10/21 09:28:57;;;;;;;;;;;14.70;99.90;;;;;;5115814;28;19972;-64
2022/10/21 09:31:24;;;;;;;;;;;14.70;99.90;;;;;;5115119;28;19971;-63
2022/10/21 09:33:55;;;;;;;;;;;14.80;99.90;;;;;;5115087;28;19974;-65
2022/10/21 09:36:24;;;;;;;;;;;14.80;99.90;;;;;;5115521;28;20347;-64
2022/10/21 09:38:56;;;;;;;;;;;14.80;99.90;;;;;;5115215;28;20020;-64
2022/10/21 09:41:26;;;;;;;;;;;14.80;99.90;;;;;;5115109;28;19977;-65
2022/10/21 09:43:55;;;;;;;;;;;14.70;99.90;;;;;;5114927;28;19965;-64
2022/10/21 09:46:22;;;;;;;;;;;14.80;99.90;;;;;;5114996;28;20435;-64
2022/10/21 09:48:51;;;;;;;;;;;14.70;99.90;;;;;;5115025;28;20426;-64
2022/10/21 09:51:41;;;;;;;;;;;14.70;99.90;;;;;;5114728;28;19971;-64
2022/10/21 09:54:12;;;;;;;;;;;14.70;99.90;;;;;;5114649;28;19982;-65
2022/10/21 09:56:42;;;;;;;;;;;14.80;99.90;;;;;;5114704;28;19971;-64
2022/10/21 09:59:11;;;;;;;;;;;14.70;99.90;;;;;;5114744;28;20431;-64
2022/10/21 10:01:40;;;;;;;;;;;14.80;99.90;;;;;;5114715;28;20343;-64
2022/10/21 10:04:12;;;;;;;;;;;14.80;99.90;;;;;;5114481;28;19966;-65
2022/10/21 10:06:40;;;;;;;;;;;14.80;99.90;;;;;;5113696;28;20437;-64
2022/10/21 10:09:13;;;;;;;;;;;14.90;99.90;;;;;;5114797;28;20366;-64
2022/10/21 10:11:52;;;;;;;;;;;14.90;99.90;;;;;;5114458;28;19967;-64
2022/10/21 10:14:25;;;;;;;;;;;14.90;99.90;;;;;;5114477;28;20481;-64
2022/10/21 10:16:53;;;;;;;;;;;14.90;99.90;;;;;;5114314;28;19967;-66
2022/10/21 10:19:21;;;;;;;;;;;14.90;99.90;;;;;;5114027;28;19965;-64
2022/10/21 10:22:07;;;;;;;;;;;14.90;99.90;;;;;;5114130;28;20000;-64
2022/10/21 10:24:39;;;;;;;;;;;14.90;99.90;;;;;;5114279;28;19974;-64
2022/10/21 10:27:11;;;;;;;;;;;14.90;99.90;;;;;;5114199;28;19976;-64
2022/10/21 10:29:40;;;;;;;;;;;14.90;99.90;;;;;;5113697;28;20086;-64
2022/10/21 10:32:13;;;;;;;;;;;14.90;99.90;;;;;;5114222;28;19971;-64
2022/10/21 10:34:47;;;;;;;;;;;14.90;99.90;;;;;;5113691;28;19974;-64
2022/10/21 10:37:17;;;;;;;;;;;15.00;99.90;;;;;;5113881;28;20422;-64
2022/10/21 10:39:48;;;;;;;;;;;15.00;99.90;;;;;;5113572;28;20365;-64
2022/10/21 10:42:16;;;;;;;;;;;15.10;99.90;;;;;;5113771;28;19967;-64
2022/10/21 10:44:44;;;;;;;;;;;15.10;99.90;;;;;;5114031;28;19971;-64
2022/10/21 10:47:18;;;;;;;;;;;15.20;99.90;;;;;;5113669;28;19973;-64
2022/10/21 10:49:46;;;;;;;;;;;15.20;99.90;;;;;;5113337;28;19966;-64
2022/10/21 10:52:19;;;;;;;;;;;15.20;99.90;;;;;;5113714;28;20166;-64
2022/10/21 10:54:49;;;;;;;;;;;15.20;99.90;;;;;;5113798;28;19971;-64
2022/10/21 10:57:18;;;;;;;;;;;15.20;99.90;;;;;;5113557;28;19967;-64
2022/10/21 10:59:48;;;;;;;;;;;15.20;99.90;;;;;;5113044;28;19967;-64
2022/10/21 11:02:21;;;;;;;;;;;15.20;99.90;;;;;;5113596;28;19966;-64
2022/10/21 11:04:55;;;;;;;;;;;15.10;99.90;;;;;;5113234;28;19972;-64
2022/10/21 11:07:25;;;;;;;;;;;15.10;99.90;;;;;;5198436;22;19986;-64
2022/10/21 11:09:58;;;;;;;;;;;15.10;99.90;;;;;;5063529;28;19967;-65
2022/10/21 11:12:26;;;;;;;;;;;15.10;99.90;;;;;;5072376;28;20409;-65
2022/10/21 11:14:56;;;;;;;;;;;15.10;99.90;;;;;;5072446;28;20445;-65
2022/10/21 11:17:28;;;;;;;;;;;15.10;99.90;;;;;;5072442;28;19968;-65
2022/10/21 11:19:59;;;;;;;;;;;15.20;99.90;;;;;;5072305;28;19968;-64
2022/10/21 11:22:32;;;;;;;;;;;15.20;99.90;;;;;;5072570;28;19972;-64
2022/10/21 11:25:04;;;;;;;;;;;15.20;99.90;;;;;;5072495;28;19974;-65
2022/10/21 11:27:36;;;;;;;;;;;15.20;99.90;;;;;;5072378;28;19972;-65
2022/10/21 11:30:08;;;;;;;;;;;15.30;99.90;;;;;;5072150;28;19977;-66
2022/10/21 11:32:40;;;;;;;;;;;15.30;99.90;;;;;;5072509;28;19972;-64
2022/10/21 11:35:17;;;;;;;;;;;15.40;99.90;;;;;;5072610;28;20376;-64
2022/10/21 11:37:53;;;;;;;;;;;15.40;99.90;;;;;;5072154;28;20059;-64
2022/10/21 11:40:29;;;;;;;;;;;15.50;99.90;;;;;;5071838;28;19976;-64
2022/10/21 11:42:58;;;;;;;;;;;15.50;99.90;;;;;;5072232;28;19994;-64
2022/10/21 11:45:32;;;;;;;;;;;15.50;99.90;;;;;;5072066;28;19968;-64
2022/10/21 11:48:06;;;;;;;;;;;15.50;99.90;;;;;;5071336;28;19974;-64
2022/10/21 11:50:37;;;;;;;;;;;15.60;99.90;;;;;;5071796;28;19968;-64
2022/10/21 11:53:11;;;;;;;;;;;15.70;99.90;;;;;;5071840;28;19974;-64
2022/10/21 11:55:43;;;;;;;;;;;15.70;99.90;;;;;;5072106;28;19993;-64
2022/10/21 11:58:17;;;;;;;;;;;15.70;99.90;;;;;;5072047;28;19967;-64
2022/10/21 12:00:48;;;;;;;;;;;15.70;99.90;;;;;;5071432;28;19968;-64
2022/10/21 12:03:28;;;;;;;;;;;15.80;99.90;;;;;;5071836;28;19971;-64
2022/10/21 12:06:00;;;;;;;;;;;15.80;99.90;;;;;;5072248;28;20443;-64
2022/10/21 12:08:33;;;;;;;;;;;15.90;99.90;;;;;;5071395;28;19974;-64
2022/10/21 12:11:09;;;;;;;;;;;16.00;99.90;;;;;;5071502;28;19970;-64
2022/10/21 12:13:39;;;;;;;;;;;16.10;99.90;;;;;;5071867;28;20069;-64
2022/10/21 12:16:08;;;;;;;;;;;16.30;99.90;;;;;;5071936;28;19968;-64
2022/10/21 12:18:39;;;;;;;;;;;16.50;99.90;;;;;;5071593;28;20357;-64
2022/10/21 12:21:10;;;;;;;;;;;16.60;99.90;;;;;;5071207;28;19967;-64
2022/10/21 12:23:38;;;;;;;;;;;16.70;99.90;;;;;;5071791;28;20025;-63
2022/10/21 12:26:14;;;;;;;;;;;16.80;99.90;;;;;;5071835;28;19973;-65
2022/10/21 12:28:45;;;;;;;;;;;16.80;99.90;;;;;;5071661;28;19992;-65
2022/10/21 12:31:21;;;;;;;;;;;16.80;99.90;;;;;;5071007;28;19972;-65
2022/10/21 12:33:49;;;;;;;;;;;16.70;99.90;;;;;;5071458;28;19971;-65
2022/10/21 12:36:18;;;;;;;;;;;16.80;99.90;;;;;;5071874;28;19972;-64
2022/10/21 12:38:48;;;;;;;;;;;16.80;99.90;;;;;;5071614;28;19977;-64
2022/10/21 12:41:36;;;;;;;;;;;17.00;99.90;;;;;;5071004;28;19980;-64
2022/10/21 12:44:17;;;;;;;;;;;17.10;99.90;;;;;;5066175;28;19976;-65
2022/10/21 12:46:46;;;;;;;;;;;17.40;99.90;;;;;;5071399;28;19973;-65
2022/10/21 12:49:24;;;;;;;;;;;17.60;99.90;;;;;;5071210;28;19972;-65
2022/10/21 12:51:54;;;;;;;;;;;17.70;99.90;;;;;;5070837;28;19970;-65
2022/10/21 12:54:23;;;;;;;;;;;17.70;99.90;;;;;;5071248;28;19966;-63
2022/10/21 12:57:01;;;;;;;;;;;17.70;99.90;;;;;;5071338;28;19973;-64
2022/10/21 12:59:31;;;;;;;;;;;17.60;99.90;;;;;;5074160;28;19967;-65
2022/10/21 13:02:18;;;;;;;;;;;17.60;99.90;;;;;;5075040;28;19989;-65
2022/10/21 13:04:50;;;;;;;;;;;17.60;99.90;;;;;;5074742;28;19970;-65
2022/10/21 13:07:29;;;;;;;;;;;17.50;99.90;;;;;;5074724;28;19981;-65
2022/10/21 13:10:12;;;;;;;;;;;17.50;99.90;;;;;;5074786;28;19973;-65
2022/10/21 13:12:39;;;;;;;;;;;17.50;99.90;;;;;;5062450;28;20465;-64
2022/10/21 13:15:22;;;;;;;;;;;17.50;99.90;;;;;;5075119;28;20434;-64
2022/10/21 13:17:52;;;;;;;;;;;17.50;99.90;;;;;;5074176;28;19976;-65
2022/10/21 13:20:39;;;;;;;;;;;17.50;99.90;;;;;;5074498;28;19967;-65
2022/10/21 13:23:28;;;;;;;;;;;17.60;99.90;;;;;;5074472;28;19971;-64
2022/10/21 13:26:06;;;;;;;;;;;17.60;99.90;;;;;;5074525;28;19974;-65
2022/10/21 13:28:34;;;;;;;;;;;17.60;99.90;;;;;;5074455;28;19974;-65
2022/10/21 13:31:01;;;;;;;;;;;17.60;99.90;;;;;;5074357;28;20439;-65
2022/10/21 13:33:32;;;;;;;;;;;17.60;99.90;;;;;;5074440;28;20320;-64
2022/10/21 13:36:01;;;;;;;;;;;17.60;99.90;;;;;;5074576;28;19970;-65
2022/10/21 13:38:30;;;;;;;;;;;17.60;99.90;;;;;;5074439;28;19968;-64
2022/10/21 13:40:59;;;;;;;;;;;17.60;99.90;;;;;;5073913;28;19966;-64
2022/10/21 13:43:28;;;;;;;;;;;17.70;99.90;;;;;;5074306;28;19978;-64
2022/10/21 13:46:03;;;;;;;;;;;17.70;99.90;;;;;;5074295;28;19966;-64
2022/10/21 13:48:38;;;;;;;;;;;17.70;99.90;;;;;;5074422;28;19972;-65
2022/10/21 13:51:14;;;;;;;;;;;17.70;99.90;;;;;;5074170;28;20340;-64
2022/10/21 13:53:44;;;;;;;;;;;17.70;99.90;;;;;;5074630;28;19973;-64
2022/10/21 13:56:19;;;;;;;;;;;17.70;99.90;;;;;;5074226;28;19966;-64
2022/10/21 13:58:46;;;;;;;;;;;17.70;99.90;;;;;;5074102;28;19966;-64
2022/10/21 14:01:17;;;;;;;;;;;17.70;99.90;;;;;;5073607;28;20362;-64
2022/10/21 14:03:46;;;;;;;;;;;17.70;99.90;;;;;;5074201;28;19966;-64
2022/10/21 14:06:22;;;;;;;;;;;17.70;99.90;;;;;;5074033;28;20053;-64
2022/10/21 14:08:50;;;;;;;;;;;17.80;99.90;;;;;;5073310;28;19966;-63
2022/10/21 14:11:19;;;;;;;;;;;17.70;99.90;;;;;;5072715;28;19966;-64
2022/10/21 14:13:48;;;;;;;;;;;17.70;99.90;;;;;;5073813;28;19966;-64
2022/10/21 14:16:21;;;;;;;;;;;17.80;99.90;;;;;;5073960;28;20258;-64
2022/10/21 14:18:51;;;;;;;;;;;17.70;99.90;;;;;;5073723;28;19966;-64
2022/10/21 14:21:20;;;;;;;;;;;17.70;99.90;;;;;;5073564;28;19974;-64
2022/10/21 14:23:48;;;;;;;;;;;17.70;99.90;;;;;;5073650;28;19980;-65
2022/10/21 14:26:16;;;;;;;;;;;17.70;99.90;;;;;;5073713;28;20017;-64
2022/10/21 14:28:44;;;;;;;;;;;17.70;99.90;;;;;;5073480;28;19970;-64
2022/10/21 14:31:13;;;;;;;;;;;17.70;99.90;;;;;;5073165;28;19973;-64
2022/10/21 14:33:42;;;;;;;;;;;17.70;99.90;;;;;;5073304;28;19973;-64